Preview of NWS' New Version of Forecast
This preview is not operational and should not be used for support decisions.

Terminal Aerodrome Forecast (TAF)

Issued by National Weather Service (NWS)

                            
287 
FTUS42 KKEY 201733
TAFMTH
TAF
KMTH 201733Z 2018/2118 11011G23KT P6SM SCT025 SCT050=